Time;durP1;ratioP1;P1;durP2;ratioP2;P2;SDS_P1;SDS_P2;PMS_P1;PMS_P2;Temp;Humidity;BMP_temperature;BMP_pressure;BME280_temperature;BME280_humidity;BME280_pressure;Samples;Min_cycle;Max_cycle;Signal;HPM_P1;HPM_P2
2023/10/09 00:01:13;;;;;;;1.23;1.17;;;12.70;99.90;;;;;;5095844;28;20223;-79
2023/10/09 00:03:45;;;;;;;1.07;0.90;;;12.70;99.90;;;;;;5095190;28;20190;-79
2023/10/09 00:06:17;;;;;;;0.93;0.93;;;12.70;99.90;;;;;;5103855;28;20170;-78
2023/10/09 00:08:50;;;;;;;1.70;1.20;;;12.70;99.90;;;;;;5098486;28;20546;-76
2023/10/09 00:11:16;;;;;;;2.40;1.00;;;12.70;99.90;;;;;;5095372;28;20158;-77
2023/10/09 00:13:57;;;;;;;1.70;1.00;;;12.70;99.90;;;;;;5094793;28;20650;-78
2023/10/09 00:16:34;;;;;;;1.03;1.03;;;13.40;99.90;;;;;;5095541;28;20168;-76
2023/10/09 00:19:13;;;;;;;2.03;1.20;;;12.60;99.90;;;;;;5094416;28;20230;-79
2023/10/09 00:21:42;;;;;;;1.27;1.17;;;12.60;99.90;;;;;;5094685;28;20175;-79
2023/10/09 00:24:13;;;;;;;1.77;1.03;;;12.60;99.90;;;;;;5098153;28;20268;-77
2023/10/09 00:26:48;;;;;;;1.23;1.23;;;12.70;99.90;;;;;;5106794;28;20174;-77
2023/10/09 00:29:21;;;;;;;1.30;1.20;;;12.60;99.90;;;;;;5086779;28;20198;-79
2023/10/09 00:31:55;;;;;;;1.20;1.13;;;12.50;99.90;;;;;;5096719;28;20166;-76
2023/10/09 00:34:22;;;;;;;1.27;1.03;;;12.60;99.90;;;;;;5094659;28;20249;-79
2023/10/09 00:36:51;;;;;;;2.83;1.13;;;12.60;99.90;;;;;;5095257;28;20696;-76
2023/10/09 00:39:41;;;;;;;1.90;1.53;;;12.60;99.90;;;;;;5094909;28;20199;-77
2023/10/09 00:42:07;;;;;;;2.80;1.30;;;12.50;99.90;;;;;;5096074;28;20267;-77
2023/10/09 00:44:40;;;;;;;1.23;1.23;;;12.50;99.90;;;;;;5106697;28;20202;-77
2023/10/09 00:47:20;;;;;;;1.37;1.27;;;12.50;99.90;;;;;;5077352;28;20170;-77
2023/10/09 00:49:49;;;;;;;1.40;1.30;;;12.50;99.90;;;;;;5094140;28;20187;-76
2023/10/09 00:52:26;;;;;;;1.20;1.20;;;12.50;99.90;;;;;;5093686;28;20179;-77
2023/10/09 00:54:53;;;;;;;1.40;1.30;;;12.50;99.90;;;;;;5094169;28;20186;-78
2023/10/09 00:57:24;;;;;;;1.57;1.47;;;12.50;99.90;;;;;;5095388;28;20184;-75
2023/10/09 00:59:59;;;;;;;1.90;1.20;;;12.50;99.90;;;;;;5096813;28;20153;-76
2023/10/09 01:02:35;;;;;;;1.33;1.23;;;12.50;99.90;;;;;;5096440;28;20176;-77
2023/10/09 01:05:19;;;;;;;1.20;1.20;;;12.50;99.90;;;;;;5075796;28;20168;-77
2023/10/09 01:07:47;;;;;;;1.40;1.30;;;12.40;99.90;;;;;;5077251;28;20185;-77
2023/10/09 01:10:16;;;;;;;1.43;1.33;;;12.50;99.90;;;;;;5092892;28;20638;-77
2023/10/09 01:12:44;;;;;;;2.80;1.40;;;12.60;99.90;;;;;;5093996;28;20172;-77
2023/10/09 01:15:35;;;;;;;1.23;1.13;;;12.60;99.90;;;;;;5094241;28;20561;-76
2023/10/09 01:17:58;;;;;;;1.53;1.40;;;12.60;99.90;;;;;;5095521;28;20261;-77
2023/10/09 01:20:30;;;;;;;1.30;1.30;;;12.50;99.90;;;;;;5105020;28;20185;-79
2023/10/09 01:22:55;;;;;;;1.73;1.30;;;12.50;99.90;;;;;;5100785;28;20273;-78
2023/10/09 01:25:21;;;;;;;1.60;1.27;;;12.50;99.90;;;;;;5095591;28;20178;-77
2023/10/09 01:27:49;;;;;;;2.33;1.37;;;12.50;99.90;;;;;;5103303;28;20214;-77
2023/10/09 01:30:15;;;;;;;1.17;1.17;;;12.60;99.90;;;;;;5100415;28;20173;-77
2023/10/09 01:32:40;;;;;;;1.53;1.43;;;12.40;99.90;;;;;;5095036;28;20189;-77
2023/10/09 01:35:19;;;;;;;3.83;1.30;;;12.40;99.90;;;;;;5076069;28;20174;-78
2023/10/09 01:37:49;;;;;;;1.47;1.37;;;12.40;99.90;;;;;;5094246;28;20159;-78
2023/10/09 01:40:36;;;;;;;1.30;1.20;;;12.40;99.90;;;;;;5095490;28;20236;-77
2023/10/09 01:43:03;;;;;;;2.07;1.40;;;12.50;99.90;;;;;;5105781;28;20158;-76
2023/10/09 01:45:29;;;;;;;1.40;1.30;;;12.50;99.90;;;;;;5095846;28;20197;-76
2023/10/09 01:47:56;;;;;;;1.80;1.67;;;12.50;99.90;;;;;;5093399;28;20205;-77
2023/10/09 01:50:24;;;;;;;1.37;1.27;;;12.50;99.90;;;;;;5093457;28;20173;-78
2023/10/09 01:52:53;;;;;;;2.30;1.47;;;11.80;99.90;;;;;;5093049;28;20166;-77
2023/10/09 01:55:38;;;;;;;2.10;1.60;;;12.50;99.90;;;;;;5093417;28;20178;-78
2023/10/09 01:58:27;;;;;;;1.70;1.43;;;12.50;99.90;;;;;;5095934;28;20158;-76
2023/10/09 02:00:56;;;;;;;2.97;1.57;;;12.50;99.90;;;;;;5096210;28;20236;-79
2023/10/09 02:03:29;;;;;;;1.50;1.40;;;12.40;99.90;;;;;;5096849;28;20253;-78
2023/10/09 02:06:03;;;;;;;1.50;1.40;;;12.40;99.90;;;;;;5112213;28;20171;-78
2023/10/09 02:08:29;;;;;;;1.40;1.30;;;12.50;99.90;;;;;;5099396;28;20240;-78
2023/10/09 02:10:56;;;;;;;1.67;1.57;;;12.30;99.90;;;;;;5095193;28;20165;-77
2023/10/09 02:13:34;;;;;;;1.40;1.10;;;12.30;99.90;;;;;;5096946;28;20249;-78
2023/10/09 02:16:26;;;;;;;1.50;1.40;;;12.30;99.90;;;;;;5108300;28;20159;-78
2023/10/09 02:18:58;;;;;;;1.60;1.43;;;12.40;99.90;;;;;;5116911;28;20233;-77
2023/10/09 02:21:34;;;;;;;2.03;1.53;;;12.30;99.90;;;;;;5109681;28;20162;-77
2023/10/09 02:24:07;;;;;;;1.50;1.40;;;12.30;99.90;;;;;;5096521;28;20162;-77
2023/10/09 02:29:15;;;;;;;3.77;1.73;;;12.30;99.90;;;;;;5098988;28;20214;-77
2023/10/09 02:31:44;;;;;;;2.97;1.30;;;12.30;99.90;;;;;;5093300;28;20158;-77
2023/10/09 02:34:15;;;;;;;1.53;1.43;;;12.20;99.90;;;;;;5093003;28;20182;-75
2023/10/09 02:36:49;;;;;;;1.20;1.20;;;12.20;99.90;;;;;;5093314;28;20150;-77
2023/10/09 02:39:25;;;;;;;1.67;1.30;;;12.20;99.90;;;;;;5092358;28;20168;-77
2023/10/09 02:41:55;;;;;;;1.70;1.60;;;12.10;99.90;;;;;;5092056;28;20770;-77
2023/10/09 02:44:25;;;;;;;3.20;1.60;;;12.30;99.90;;;;;;5092324;28;20619;-77
2023/10/09 02:46:57;;;;;;;2.27;1.30;;;12.10;99.90;;;;;;5058538;28;20636;-77
2023/10/09 02:49:24;;;;;;;1.60;1.47;;;12.00;99.90;;;;;;5074499;28;20609;-77
2023/10/09 02:51:53;;;;;;;1.70;1.47;;;12.00;99.90;;;;;;5092952;28;20175;-78
2023/10/09 02:54:27;;;;;;;1.57;1.47;;;12.10;99.90;;;;;;5092625;28;20167;-78
2023/10/09 02:57:05;;;;;;;1.47;1.33;;;12.10;99.90;;;;;;5093132;28;20180;-78
2023/10/09 02:59:31;;;;;;;1.60;1.50;;;12.00;99.90;;;;;;5074631;28;20284;-77
2023/10/09 03:01:59;;;;;;;1.70;1.60;;;11.90;99.90;;;;;;5092616;28;20180;-78
2023/10/09 03:04:29;;;;;;;1.93;1.83;;;11.90;99.90;;;;;;5074655;28;20197;-79
2023/10/09 03:07:13;;;;;;;2.20;1.30;;;11.80;99.90;;;;;;5092604;28;20172;-77
2023/10/09 03:09:51;;;;;;;1.60;1.50;;;11.70;99.90;;;;;;5069123;28;20230;-79
2023/10/09 03:12:39;;;;;;;1.70;1.60;;;11.50;99.90;;;;;;5104768;28;20165;-77
2023/10/09 03:15:08;;;;;;;1.60;1.50;;;11.60;99.90;;;;;;5120435;28;20208;-78
2023/10/09 03:17:34;;;;;;;3.67;2.00;;;11.70;99.90;;;;;;5105348;28;20174;-76
2023/10/09 03:20:12;;;;;;;3.50;1.70;;;11.70;99.90;;;;;;5092779;28;20256;-77
2023/10/09 03:22:39;;;;;;;3.17;1.70;;;11.70;99.90;;;;;;5092719;28;20720;-78
2023/10/09 03:25:11;;;;;;;2.37;1.70;;;11.70;99.90;;;;;;5092470;28;20185;-78
2023/10/09 03:27:45;;;;;;;1.83;1.70;;;11.70;99.90;;;;;;5093678;28;20498;-77
2023/10/09 03:30:22;;;;;;;2.00;1.90;;;11.80;99.90;;;;;;5092610;28;20158;-79
2023/10/09 03:32:50;;;;;;;1.60;1.50;;;11.70;99.90;;;;;;5092402;28;20161;-78
2023/10/09 03:35:23;;;;;;;2.77;2.00;;;11.80;99.90;;;;;;5096154;28;20173;-78
2023/10/09 03:38:09;;;;;;;2.00;1.50;;;11.80;99.90;;;;;;5096270;28;20563;-80
2023/10/09 03:40:38;;;;;;;3.67;1.77;;;11.90;99.90;;;;;;5096542;28;20247;-76
2023/10/09 03:43:04;;;;;;;2.23;1.60;;;11.80;99.90;;;;;;5097375;28;20568;-77
2023/10/09 03:45:35;;;;;;;2.63;2.50;;;11.60;99.90;;;;;;5116665;28;20188;-77
2023/10/09 03:48:22;;;;;;;3.97;2.20;;;11.70;99.90;;;;;;5099550;28;20193;-78
2023/10/09 03:50:48;;;;;;;2.23;1.70;;;11.80;99.90;;;;;;5098561;28;20155;-76
2023/10/09 03:53:14;;;;;;;1.90;1.80;;;11.90;99.90;;;;;;5096268;28;20633;-78
2023/10/09 03:55:41;;;;;;;5.20;2.13;;;11.90;99.90;;;;;;5095743;28;20228;-78
2023/10/09 03:58:11;;;;;;;2.10;1.73;;;11.90;99.90;;;;;;5096925;28;20170;-77
2023/10/09 04:00:46;;;;;;;3.20;1.70;;;11.90;99.90;;;;;;5096404;28;20197;-78
2023/10/09 04:03:14;;;;;;;1.90;1.80;;;11.90;99.90;;;;;;5095248;28;20179;-77
2023/10/09 04:05:42;;;;;;;1.83;1.73;;;11.70;99.90;;;;;;5095039;28;20224;-77
2023/10/09 04:08:13;;;;;;;1.80;1.70;;;11.60;99.90;;;;;;5096048;28;20200;-77
2023/10/09 04:10:52;;;;;;;1.73;1.60;;;11.60;99.90;;;;;;5094924;28;20166;-77
2023/10/09 04:13:22;;;;;;;1.90;1.80;;;11.70;99.90;;;;;;5095202;28;20182;-77
2023/10/09 04:15:49;;;;;;;2.80;1.93;;;11.60;99.90;;;;;;5095653;28;20695;-76
2023/10/09 04:18:15;;;;;;;2.80;1.87;;;11.70;99.90;;;;;;5101260;28;20218;-76
2023/10/09 04:21:08;;;;;;;4.40;2.50;;;11.60;99.90;;;;;;5119489;28;20176;-76
2023/10/09 04:23:36;;;;;;;3.63;1.80;;;11.60;99.90;;;;;;5116603;28;20582;-78
2023/10/09 04:26:10;;;;;;;2.30;2.10;;;11.60;99.90;;;;;;5116134;28;20241;-77
2023/10/09 04:28:37;;;;;;;1.93;1.87;;;11.60;99.90;;;;;;5097332;28;20213;-77
2023/10/09 04:31:06;;;;;;;2.00;1.90;;;11.50;99.90;;;;;;5115872;28;20260;-78
2023/10/09 04:41:50;;;;;;;2.20;2.10;;;11.40;99.90;;;;;;5115403;28;20165;-77
2023/10/09 04:44:20;;;;;;;2.33;2.20;;;11.50;99.90;;;;;;5115761;28;20156;-77
2023/10/09 05:00:35;;;;;;;2.97;2.07;;;11.30;99.90;;;;;;5118346;28;20222;-76
2023/10/09 05:03:11;;;;;;;1.80;1.70;;;11.30;99.90;;;;;;5100770;28;20651;-78
2023/10/09 05:08:22;;;;;;;2.13;2.03;;;11.30;99.90;;;;;;5116385;28;20213;-78
2023/10/09 05:11:15;;;;;;;6.57;2.10;;;11.40;99.90;;;;;;5125769;28;20159;-77
2023/10/09 05:16:18;;;;;;;2.00;1.90;;;11.30;99.90;;;;;;5116617;28;20473;-76
2023/10/09 05:18:59;;;;;;;3.73;1.60;;;11.40;99.90;;;;;;5114990;28;20656;-77
2023/10/09 05:29:34;;;;;;;3.53;1.90;;;11.40;99.90;;;;;;5115561;28;20200;-77
2023/10/09 05:32:04;;;;;;;3.53;1.80;;;11.50;99.90;;;;;;5117635;28;20165;-76
2023/10/09 05:34:34;;;;;;;3.17;1.93;;;11.30;99.90;;;;;;5116785;28;20286;-76
2023/10/09 05:37:24;;;;;;;4.10;1.90;;;11.70;99.90;;;;;;5116402;28;20581;-77
2023/10/09 05:42:42;;;;;;;1.97;1.83;;;10.80;99.90;;;;;;5116761;28;20156;-77
2023/10/09 05:47:35;;;;;;;2.57;2.37;;;11.30;99.90;;;;;;5115306;28;20265;-77
2023/10/09 06:14:12;;;;;;;2.10;1.90;;;11.50;99.90;;;;;;5115984;28;20250;-76
2023/10/09 06:16:42;;;;;;;2.70;2.37;;;11.60;99.90;;;;;;5114572;28;20168;-79
2023/10/09 06:19:26;;;;;;;2.80;1.90;;;11.70;99.90;;;;;;5115687;28;20681;-77
2023/10/09 06:24:54;;;;;;;2.33;2.17;;;11.90;99.90;;;;;;5115144;28;20162;-77
2023/10/09 06:34:07;;;;;;;3.03;2.20;;;11.80;99.90;;;;;;5115258;28;20173;-79
2023/10/09 06:35:39;;;;;;;2.23;2.13;;;11.80;99.90;;;;;;5102454;28;20186;-77
2023/10/09 06:38:22;;;;;;;2.07;1.97;;;11.80;99.90;;;;;;5095617;28;20181;-77
2023/10/09 06:59:04;;;;;;;3.10;2.23;;;12.00;99.90;;;;;;5093295;28;20161;-77
2023/10/09 07:01:42;;;;;;;2.57;2.37;;;12.10;99.90;;;;;;5100655;28;20242;-77
2023/10/09 07:04:45;;;;;;;3.67;2.10;;;12.10;99.90;;;;;;5109443;28;20166;-77
2023/10/09 07:07:20;;;;;;;2.77;2.53;;;12.10;99.90;;;;;;5095709;28;20186;-78
2023/10/09 07:12:42;;;;;;;2.30;2.20;;;12.30;99.90;;;;;;5097420;28;20163;-78
2023/10/09 07:20:15;;;;;;;2.63;2.00;;;12.40;99.90;;;;;;5078206;28;20220;-78
2023/10/09 07:22:56;;;;;;;3.67;2.13;;;12.50;99.90;;;;;;5076572;28;20155;-77
2023/10/09 07:28:42;;;;;;;2.90;2.00;;;12.50;99.90;;;;;;5014138;28;20239;-78
2023/10/09 07:31:23;;;;;;;2.10;2.00;;;12.50;99.90;;;;;;5013936;28;20707;-76
2023/10/09 07:33:59;;;;;;;2.13;2.00;;;12.50;99.90;;;;;;5020027;28;20169;-77
2023/10/09 07:36:34;;;;;;;3.77;2.40;;;12.60;99.90;;;;;;5014267;28;20730;-75
2023/10/09 07:39:13;;;;;;;2.87;2.10;;;12.70;99.90;;;;;;5013676;28;20192;-77
2023/10/09 07:41:45;;;;;;;3.10;2.13;;;12.60;99.90;;;;;;5014045;28;20170;-76
2023/10/09 07:44:34;;;;;;;4.77;1.93;;;12.70;99.90;;;;;;5014146;28;20217;-75
2023/10/09 07:49:53;;;;;;;1.90;1.80;;;12.70;99.90;;;;;;5014598;28;20341;-78
2023/10/09 07:52:21;;;;;;;8.80;2.83;;;12.70;99.90;;;;;;5015196;28;20203;-77
2023/10/09 07:54:52;;;;;;;2.73;2.53;;;12.80;99.90;;;;;;5019565;28;20169;-77
2023/10/09 07:57:25;;;;;;;2.20;2.03;;;12.90;99.90;;;;;;5019013;28;20194;-77
2023/10/09 08:00:00;;;;;;;2.60;2.40;;;12.90;99.90;;;;;;5016266;28;20662;-77
2023/10/09 08:02:32;;;;;;;2.30;2.20;;;13.00;99.90;;;;;;5022892;28;20169;-78
2023/10/09 08:05:04;;;;;;;2.47;2.00;;;13.00;99.90;;;;;;5073870;28;20183;-77
2023/10/09 08:07:37;;;;;;;2.57;2.10;;;13.00;99.90;;;;;;5083231;28;20178;-77
2023/10/09 08:18:14;;;;;;;2.90;2.13;;;13.40;99.90;;;;;;5090214;28;20199;-76
2023/10/09 08:23:33;;;;;;;2.03;1.93;;;13.40;99.90;;;;;;5076643;28;20207;-79
2023/10/09 08:26:12;;;;;;;3.13;2.30;;;13.30;99.90;;;;;;5075025;28;20179;-77
2023/10/09 08:28:45;;;;;;;2.70;2.07;;;13.40;99.90;;;;;;5074977;28;20217;-77
2023/10/09 08:31:56;;;;;;;3.30;2.00;;;13.50;99.90;;;;;;5075141;28;20568;-77
2023/10/09 08:34:09;;;;;;;2.30;1.80;;;13.60;99.90;;;;;;5071876;28;20251;-78
2023/10/09 08:36:40;;;;;;;2.57;2.20;;;13.80;99.90;;;;;;5075096;28;20225;-78
2023/10/09 08:39:25;;;;;;;2.27;1.87;;;13.90;99.90;;;;;;5074783;28;20463;-77
2023/10/09 08:41:57;;;;;;;6.27;2.37;;;13.90;99.90;;;;;;5085117;28;20249;-77
2023/10/09 08:44:25;;;;;;;2.37;2.23;;;14.00;99.90;;;;;;5083613;28;20168;-76
2023/10/09 08:46:51;;;;;;;4.03;2.73;;;14.10;99.90;;;;;;5075592;28;20288;-79
2023/10/09 08:49:18;;;;;;;3.10;2.20;;;14.00;99.90;;;;;;5074435;28;20286;-77
2023/10/09 08:51:46;;;;;;;3.40;2.60;;;14.20;99.90;;;;;;5076564;28;20174;-77
2023/10/09 08:54:14;;;;;;;5.73;2.57;;;14.30;99.90;;;;;;5068790;28;20175;-76
2023/10/09 08:56:49;;;;;;;3.73;2.60;;;14.40;99.90;;;;;;5078010;28;20512;-78
2023/10/09 08:59:18;;;;;;;2.87;2.43;;;14.50;99.90;;;;;;5079650;28;20209;-76
2023/10/09 09:01:51;;;;;;;5.33;2.70;;;14.60;99.90;;;;;;5083478;28;20178;-75
2023/10/09 09:04:39;;;;;;;2.50;2.30;;;14.60;99.90;;;;;;5064838;28;20237;-76
2023/10/09 09:07:27;;;;;;;4.17;2.20;;;14.50;99.90;;;;;;5078954;28;20237;-76
2023/10/09 09:09:57;;;;;;;4.27;2.60;;;14.50;99.90;;;;;;5075001;28;20204;-77
2023/10/09 09:12:23;;;;;;;4.33;2.10;;;14.50;99.90;;;;;;5074654;28;20263;-77
2023/10/09 09:14:50;;;;;;;3.07;2.37;;;14.60;99.90;;;;;;5073910;28;20187;-76
2023/10/09 09:17:23;;;;;;;2.97;2.13;;;14.80;99.90;;;;;;5074203;28;20170;-76
2023/10/09 09:19:49;;;;;;;2.93;2.10;;;14.80;99.90;;;;;;5090427;28;20214;-77
2023/10/09 09:22:19;;;;;;;3.83;2.53;;;14.90;99.90;;;;;;5093789;28;20181;-79
2023/10/09 09:25:03;;;;;;;3.50;2.40;;;14.90;99.90;;;;;;5094562;28;20187;-77
2023/10/09 09:27:55;;;;;;;3.43;2.37;;;14.90;99.90;;;;;;5094215;28;20253;-76
2023/10/09 09:30:35;;;;;;;4.00;2.33;;;15.00;99.90;;;;;;5093897;28;20632;-75
2023/10/09 09:36:06;;;;;;;3.20;2.20;;;14.90;99.90;;;;;;5094941;28;20157;-77
2023/10/09 09:38:50;;;;;;;2.97;2.23;;;14.90;99.90;;;;;;5100385;28;20187;-77
2023/10/09 09:41:25;;;;;;;4.00;2.47;;;14.90;99.90;;;;;;5099486;28;20164;-76
2023/10/09 09:43:56;;;;;;;4.57;2.13;;;15.10;99.90;;;;;;5094896;28;20164;-77
2023/10/09 09:46:32;;;;;;;4.37;2.30;;;15.30;99.90;;;;;;5095074;28;20178;-77
2023/10/09 09:49:05;;;;;;;2.33;2.13;;;14.90;99.90;;;;;;5095098;28;20282;-77
2023/10/09 09:51:34;;;;;;;3.60;2.43;;;15.00;99.90;;;;;;5094959;28;20156;-76
2023/10/09 09:54:09;;;;;;;3.73;2.53;;;15.00;99.90;;;;;;5094693;28;20178;-75
2023/10/09 09:56:40;;;;;;;2.90;2.60;;;15.10;99.90;;;;;;5094426;28;20517;-75
2023/10/09 09:59:11;;;;;;;4.83;2.43;;;14.90;99.90;;;;;;5101542;28;20167;-75
2023/10/09 10:01:40;;;;;;;2.80;2.60;;;14.90;99.90;;;;;;5100579;28;20178;-76
2023/10/09 10:04:13;;;;;;;4.23;2.20;;;14.90;99.90;;;;;;5093263;28;20178;-75
2023/10/09 10:06:44;;;;;;;3.33;2.47;;;14.90;99.90;;;;;;5094990;28;20161;-75
2023/10/09 10:09:10;;;;;;;3.97;2.40;;;14.90;99.90;;;;;;5098436;28;20279;-76
2023/10/09 10:11:51;;;;;;;4.33;2.67;;;15.00;99.90;;;;;;5095290;28;20202;-77
2023/10/09 10:14:31;;;;;;;5.70;2.77;;;15.20;99.90;;;;;;5101519;28;20180;-78
2023/10/09 10:17:18;;;;;;;3.07;2.30;;;15.20;99.90;;;;;;5101273;28;20163;-77
2023/10/09 10:20:25;;;;;;;5.30;2.30;;;15.10;99.90;;;;;;5099283;28;20779;-77
2023/10/09 10:23:10;;;;;;;4.13;2.40;;;15.00;99.90;;;;;;5103453;28;20163;-77
2023/10/09 10:25:41;;;;;;;3.57;2.30;;;15.00;99.90;;;;;;5112789;28;20148;-78
2023/10/09 10:28:38;;;;;;;4.30;2.30;;;15.10;99.90;;;;;;5102674;28;20193;-75
2023/10/09 10:31:13;;;;;;;5.70;2.27;;;15.10;99.90;;;;;;5094213;28;20182;-75
2023/10/09 10:33:54;;;;;;;3.93;2.70;;;15.40;99.90;;;;;;5093433;28;20569;-77
2023/10/09 10:36:24;;;;;;;3.17;2.77;;;15.40;99.90;;;;;;5093390;28;20612;-76
2023/10/09 10:39:04;;;;;;;3.50;2.20;;;15.50;99.90;;;;;;5093346;28;20243;-76
2023/10/09 10:41:35;;;;;;;2.37;2.17;;;15.60;99.90;;;;;;5093820;28;20178;-75
2023/10/09 10:44:53;;;;;;;2.67;2.17;;;15.60;99.90;;;;;;5093055;28;20153;-76
2023/10/09 10:46:53;;;;;;;4.70;3.03;;;15.70;99.90;;;;;;5082233;28;20278;-77
2023/10/09 10:49:25;;;;;;;4.07;2.13;;;15.70;99.90;;;;;;5094604;28;20199;-77
2023/10/09 10:52:01;;;;;;;2.70;2.17;;;15.80;99.90;;;;;;5099118;28;20236;-78
2023/10/09 10:57:03;;;;;;;2.20;2.00;;;16.10;99.90;;;;;;5093733;28;20187;-79
2023/10/09 10:59:41;;;;;;;4.30;2.10;;;16.30;99.90;;;;;;5093800;28;20517;-78
2023/10/09 11:04:43;;;;;;;2.33;2.20;;;16.40;99.90;;;;;;5095516;28;20654;-77
2023/10/09 11:07:10;;;;;;;2.10;2.00;;;16.40;99.90;;;;;;5099670;28;20197;-76
2023/10/09 11:12:42;;;;;;;2.10;2.00;;;16.40;99.90;;;;;;5093790;28;20169;-77
2023/10/09 11:15:29;;;;;;;2.20;2.07;;;16.40;99.90;;;;;;5095802;28;20159;-77
2023/10/09 11:18:16;;;;;;;3.73;2.00;;;16.50;99.90;;;;;;5100238;28;20175;-75
2023/10/09 11:20:56;;;;;;;4.77;2.00;;;16.60;99.90;;;;;;5093775;28;20219;-76
2023/10/09 11:26:21;;;;;;;4.93;1.90;;;16.70;99.90;;;;;;5092885;28;20159;-76
2023/10/09 11:28:49;;;;;;;3.03;2.40;;;16.70;99.90;;;;;;5097813;28;20581;-76
2023/10/09 11:31:16;;;;;;;2.07;1.87;;;16.80;99.90;;;;;;5111677;28;20226;-76
2023/10/09 11:33:53;;;;;;;2.70;2.03;;;16.80;99.90;;;;;;5095586;28;20178;-76
2023/10/09 11:36:34;;;;;;;4.07;2.20;;;16.90;99.90;;;;;;5093704;28;20185;-76
2023/10/09 11:39:22;;;;;;;4.20;2.00;;;16.80;99.90;;;;;;5103401;28;20255;-76
2023/10/09 11:41:55;;;;;;;1.70;1.60;;;16.30;99.90;;;;;;5106202;28;20173;-76
2023/10/09 11:44:45;;;;;;;3.10;1.80;;;17.00;99.90;;;;;;5116384;28;20183;-77
2023/10/09 11:50:18;;;;;;;2.10;2.00;;;16.90;99.90;;;;;;5094057;28;20213;-77
2023/10/09 11:55:48;;;;;;;4.20;2.23;;;17.10;99.90;;;;;;5095378;28;20223;-76
2023/10/09 11:58:22;;;;;;;4.43;1.93;;;17.90;99.90;;;;;;5096413;28;20170;-78
2023/10/09 12:00:51;;;;;;;4.07;2.07;;;17.30;99.90;;;;;;5097614;28;20151;-75
2023/10/09 12:03:21;;;;;;;3.20;2.10;;;17.40;99.90;;;;;;5112966;28;20167;-78
2023/10/09 12:05:47;;;;;;;2.87;1.90;;;17.20;99.90;;;;;;5103576;28;20246;-76
2023/10/09 12:08:16;;;;;;;3.27;1.87;;;17.60;99.90;;;;;;5097564;28;20240;-76
2023/10/09 12:10:42;;;;;;;3.30;2.67;;;17.60;99.90;;;;;;5096135;28;20174;-77
2023/10/09 12:13:08;;;;;;;4.90;2.50;;;17.70;99.90;;;;;;5097661;28;20167;-75
2023/10/09 12:15:37;;;;;;;5.37;2.93;;;17.60;99.90;;;;;;5077001;28;20787;-77
2023/10/09 12:18:14;;;;;;;3.50;2.00;;;17.70;99.90;;;;;;5095160;28;20634;-78
2023/10/09 12:20:50;;;;;;;3.67;1.97;;;17.80;99.90;;;;;;5078314;28;20579;-77
2023/10/09 12:23:21;;;;;;;3.70;2.00;;;17.90;99.90;;;;;;5110692;28;20170;-79
2023/10/09 12:25:51;;;;;;;3.27;2.13;;;17.90;99.90;;;;;;5095351;28;20171;-75
2023/10/09 12:28:20;;;;;;;5.07;3.00;;;17.90;99.90;;;;;;5095043;28;20209;-75
2023/10/09 12:30:50;;;;;;;2.40;2.20;;;17.80;99.90;;;;;;5095056;28;20220;-76
2023/10/09 12:33:18;;;;;;;4.93;2.17;;;17.80;99.90;;;;;;5095113;28;20261;-78
2023/10/09 12:35:47;;;;;;;5.23;2.40;;;17.90;99.90;;;;;;5094994;28;20592;-76
2023/10/09 12:38:18;;;;;;;2.70;2.10;;;18.00;99.90;;;;;;5076729;28;20174;-77
2023/10/09 12:40:50;;;;;;;4.73;2.10;;;17.80;99.90;;;;;;5077048;28;20174;-75
2023/10/09 12:43:19;;;;;;;4.53;1.90;;;17.80;99.90;;;;;;5076430;28;20163;-77
2023/10/09 12:45:46;;;;;;;5.13;2.00;;;18.00;99.90;;;;;;5095166;28;20175;-76
2023/10/09 12:48:14;;;;;;;4.23;1.80;;;18.10;99.90;;;;;;5095169;28;20541;-76
2023/10/09 12:50:44;;;;;;;2.03;1.80;;;18.10;99.90;;;;;;5098010;28;20219;-76
2023/10/09 12:53:10;;;;;;;3.10;2.20;;;18.20;99.90;;;;;;5101739;28;20188;-76
2023/10/09 12:55:41;;;;;;;5.83;2.27;;;18.30;99.90;;;;;;5101540;28;20245;-75
2023/10/09 12:58:08;;;;;;;5.53;2.17;;;18.30;99.90;;;;;;5096551;28;20220;-78
2023/10/09 13:00:43;;;;;;;1.90;1.80;;;18.30;99.90;;;;;;5102518;28;20174;-77
2023/10/09 13:03:19;;;;;;;2.50;2.00;;;18.30;99.90;;;;;;5095955;28;20542;-76
2023/10/09 13:05:54;;;;;;;10.37;5.67;;;18.40;99.90;;;;;;5094337;28;20702;-76
2023/10/09 13:08:39;;;;;;;3.60;2.47;;;18.30;99.90;;;;;;5105876;28;20225;-80
2023/10/09 13:11:19;;;;;;;4.00;1.93;;;18.30;99.90;;;;;;5095011;28;20159;-76
2023/10/09 13:13:51;;;;;;;3.33;2.00;;;18.30;99.90;;;;;;5093900;28;20563;-78
2023/10/09 13:16:25;;;;;;;8.13;2.17;;;19.10;99.90;;;;;;5076439;28;20175;-77
2023/10/09 13:18:59;;;;;;;3.67;2.17;;;18.40;99.90;;;;;;5094321;28;20650;-79
2023/10/09 13:21:31;;;;;;;7.33;2.63;;;18.90;99.90;;;;;;5094147;28;20172;-77
2023/10/09 13:24:00;;;;;;;3.00;2.00;;;18.40;99.90;;;;;;5078177;28;20529;-78
2023/10/09 13:26:29;;;;;;;2.97;1.90;;;18.40;99.90;;;;;;5094691;28;20181;-77
2023/10/09 13:28:57;;;;;;;2.77;2.10;;;18.50;99.90;;;;;;5077198;28;20212;-76
2023/10/09 13:31:31;;;;;;;4.37;2.30;;;18.50;99.90;;;;;;5094040;28;20175;-78
2023/10/09 13:33:59;;;;;;;3.00;2.17;;;18.50;99.90;;;;;;5077437;28;20159;-76
2023/10/09 13:36:30;;;;;;;2.53;2.03;;;18.50;99.90;;;;;;5093926;28;20249;-77
2023/10/09 13:39:22;;;;;;;3.03;1.70;;;18.50;99.90;;;;;;5098408;28;20150;-77
2023/10/09 13:41:58;;;;;;;3.00;1.97;;;18.60;99.90;;;;;;5100789;28;20182;-76
2023/10/09 13:44:33;;;;;;;3.97;2.27;;;18.60;99.90;;;;;;5113804;28;20143;-77
2023/10/09 13:47:01;;;;;;;3.23;2.60;;;18.60;99.90;;;;;;5099558;28;20158;-79
2023/10/09 13:49:30;;;;;;;7.73;2.23;;;18.60;99.90;;;;;;5094948;28;20206;-75
2023/10/09 13:51:57;;;;;;;2.43;1.90;;;18.50;99.90;;;;;;5075355;28;20275;-75
2023/10/09 13:54:58;;;;;;;5.47;2.40;;;18.50;99.90;;;;;;5075933;28;20182;-77
2023/10/09 13:57:15;;;;;;;6.87;2.00;;;18.40;99.90;;;;;;5091263;28;20218;-76
2023/10/09 13:59:51;;;;;;;3.40;2.30;;;18.40;99.90;;;;;;5094525;28;20179;-75
2023/10/09 14:02:21;;;;;;;2.73;2.07;;;18.40;99.90;;;;;;5095123;28;20245;-78
2023/10/09 14:04:47;;;;;;;2.17;1.97;;;18.50;99.90;;;;;;5096643;28;20528;-76
2023/10/09 14:07:16;;;;;;;5.07;2.20;;;18.50;99.90;;;;;;5098754;28;20196;-76
2023/10/09 14:12:11;;;;;;;3.40;2.40;;;18.60;99.90;;;;;;5097975;28;20205;-79
2023/10/09 14:14:53;;;;;;;5.27;2.27;;;18.50;99.90;;;;;;5097823;28;20258;-77
2023/10/09 14:17:23;;;;;;;7.27;5.37;;;18.60;99.90;;;;;;5093886;28;20163;-75
2023/10/09 14:19:53;;;;;;;8.50;6.90;;;18.60;99.90;;;;;;5094425;28;20257;-76
2023/10/09 14:22:20;;;;;;;4.00;2.33;;;18.60;99.90;;;;;;5103761;28;20227;-76
2023/10/09 14:24:48;;;;;;;2.10;1.90;;;18.70;99.90;;;;;;5100364;28;20177;-76
2023/10/09 14:27:19;;;;;;;3.67;2.50;;;18.60;99.90;;;;;;5094189;28;20162;-78
2023/10/09 14:29:49;;;;;;;2.60;1.97;;;18.60;99.90;;;;;;5078561;28;20251;-79
2023/10/09 14:32:16;;;;;;;3.20;2.90;;;18.60;99.90;;;;;;5101120;28;20167;-78
2023/10/09 14:34:51;;;;;;;4.77;2.60;;;18.50;99.90;;;;;;5093667;28;20263;-78
2023/10/09 14:37:18;;;;;;;2.83;2.40;;;18.40;99.90;;;;;;5094529;28;20524;-76
2023/10/09 14:39:51;;;;;;;3.37;2.73;;;18.40;99.90;;;;;;5094391;28;20252;-76
2023/10/09 14:42:17;;;;;;;3.57;3.00;;;18.40;99.90;;;;;;5094484;28;20216;-76
2023/10/09 14:44:47;;;;;;;4.03;2.60;;;18.40;99.90;;;;;;5092917;28;20175;-77
2023/10/09 14:47:14;;;;;;;3.00;2.10;;;18.50;99.90;;;;;;5097401;28;20166;-77
2023/10/09 14:49:46;;;;;;;4.70;2.50;;;18.40;99.90;;;;;;5099639;28;20301;-76
2023/10/09 14:52:16;;;;;;;2.97;2.30;;;18.40;99.90;;;;;;5094666;28;20174;-79
2023/10/09 14:54:44;;;;;;;2.60;2.40;;;18.40;99.90;;;;;;5092937;28;20166;-76
2023/10/09 14:57:13;;;;;;;3.80;2.57;;;18.40;99.90;;;;;;5092808;28;20714;-78
2023/10/09 14:59:39;;;;;;;8.30;2.67;;;18.30;99.90;;;;;;5095075;28;20201;-77
2023/10/09 15:02:07;;;;;;;7.17;2.60;;;18.40;99.90;;;;;;5092510;28;20372;-78
2023/10/09 15:04:36;;;;;;;2.33;2.13;;;18.30;99.90;;;;;;5093612;28;20174;-79
2023/10/09 15:07:06;;;;;;;3.40;2.10;;;18.20;99.90;;;;;;5094556;28;20217;-78
2023/10/09 15:09:34;;;;;;;2.30;2.03;;;18.10;99.90;;;;;;5094786;28;20217;-75
2023/10/09 15:12:00;;;;;;;4.17;2.30;;;18.10;99.90;;;;;;5092451;28;20170;-76
2023/10/09 15:14:26;;;;;;;2.57;2.27;;;18.10;99.90;;;;;;5094885;28;20193;-78
2023/10/09 15:16:52;;;;;;;5.57;2.87;;;18.00;99.90;;;;;;5076633;28;20178;-76
2023/10/09 15:19:20;;;;;;;5.13;2.90;;;18.00;99.90;;;;;;5092313;28;20222;-76
2023/10/09 15:21:45;;;;;;;3.10;2.60;;;17.90;99.90;;;;;;5092878;28;20251;-76
2023/10/09 15:24:15;;;;;;;4.60;2.87;;;17.90;99.90;;;;;;5100473;28;20194;-76
2023/10/09 15:26:42;;;;;;;6.43;3.23;;;17.90;99.90;;;;;;5103463;28;20163;-76
2023/10/09 15:29:09;;;;;;;7.07;3.43;;;17.90;99.90;;;;;;5093167;28;20206;-76
2023/10/09 15:31:36;;;;;;;4.23;2.70;;;17.90;99.90;;;;;;5096401;28;20158;-76
2023/10/09 15:34:02;;;;;;;3.47;3.00;;;17.80;99.90;;;;;;5096365;28;20607;-77
2023/10/09 15:36:31;;;;;;;3.10;2.80;;;17.80;99.90;;;;;;5097022;28;20178;-77
2023/10/09 15:39:00;;;;;;;4.73;2.90;;;17.70;99.90;;;;;;5077882;28;20265;-75